Time;durP1;ratioP1;P1;durP2;ratioP2;P2;SDS_P1;SDS_P2;PMS_P1;PMS_P2;Temp;Humidity;BMP_temperature;BMP_pressure;BME280_temperature;BME280_humidity;BME280_pressure;Samples;Min_cycle;Max_cycle;Signal;HPM_P1;HPM_P2
2023/06/06 00:01:51;;;;;;;11.45;6.32;;;10.90;99.90;;;;;;5029488;28;20039;-53
2023/06/06 00:04:17;;;;;;;12.27;6.18;;;10.80;99.90;;;;;;5032317;28;20049;-50
2023/06/06 00:06:44;;;;;;;15.23;6.88;;;10.80;99.90;;;;;;5029054;28;20045;-53
2023/06/06 00:09:10;;;;;;;9.75;6.35;;;10.80;99.90;;;;;;5025254;28;20049;-50
2023/06/06 00:11:39;;;;;;;10.57;6.80;;;10.80;99.90;;;;;;5027145;28;20041;-53
2023/06/06 00:14:07;;;;;;;11.73;6.15;;;10.80;99.90;;;;;;5029009;28;20045;-54
2023/06/06 00:16:34;;;;;;;12.93;7.20;;;10.70;99.90;;;;;;5029458;28;20174;-53
2023/06/06 00:19:00;;;;;;;11.50;6.80;;;10.70;99.90;;;;;;5021667;28;20057;-54
2023/06/06 00:21:27;;;;;;;13.40;6.72;;;10.70;99.90;;;;;;5027816;28;20110;-50
2023/06/06 00:23:55;;;;;;;16.45;6.70;;;10.70;99.90;;;;;;5030567;28;20385;-52
2023/06/06 00:26:21;;;;;;;13.35;7.28;;;10.70;99.90;;;;;;5019350;28;20045;-51
2023/06/06 00:28:46;;;;;;;11.45;6.60;;;10.70;99.90;;;;;;5028740;28;20037;-52
2023/06/06 00:31:13;;;;;;;15.35;6.47;;;10.70;99.90;;;;;;5022753;28;20052;-52
2023/06/06 00:33:39;;;;;;;10.30;6.50;;;10.60;99.90;;;;;;5027377;28;20140;-53
2023/06/06 00:36:05;;;;;;;13.98;6.70;;;10.60;99.90;;;;;;5030392;28;20045;-49
2023/06/06 00:38:32;;;;;;;12.30;6.43;;;10.60;99.90;;;;;;5027307;28;20045;-51
2023/06/06 00:40:58;;;;;;;12.90;7.10;;;10.60;99.90;;;;;;5040087;28;20083;-53
2023/06/06 00:43:23;;;;;;;12.88;6.88;;;10.60;99.90;;;;;;5030987;28;20317;-52
2023/06/06 00:45:50;;;;;;;13.05;7.25;;;10.60;99.90;;;;;;5029395;28;20045;-51
2023/06/06 00:48:18;;;;;;;18.05;7.47;;;10.60;99.90;;;;;;5029031;28;20052;-54
2023/06/06 00:50:44;;;;;;;17.00;7.47;;;10.60;99.90;;;;;;5025754;28;20092;-52
2023/06/06 00:53:10;;;;;;;12.65;6.78;;;10.50;99.90;;;;;;5028932;28;20523;-54
2023/06/06 00:55:37;;;;;;;15.10;7.32;;;10.50;99.90;;;;;;5026992;28;20052;-52
2023/06/06 00:58:04;;;;;;;12.73;7.00;;;10.50;99.90;;;;;;5027538;28;20426;-52
2023/06/06 01:00:32;;;;;;;15.57;6.80;;;10.50;99.90;;;;;;5029083;28;20177;-54
2023/06/06 01:03:01;;;;;;;12.00;6.90;;;10.50;99.90;;;;;;5031253;28;20441;-54
2023/06/06 01:05:26;;;;;;;13.20;6.78;;;10.40;99.90;;;;;;5023339;28;20497;-49
2023/06/06 01:07:53;;;;;;;10.60;6.63;;;10.40;99.90;;;;;;5027522;28;20043;-53
2023/06/06 01:10:21;;;;;;;15.85;7.40;;;10.40;99.90;;;;;;5028678;28;20057;-52
2023/06/06 01:13:06;;;;;;;13.52;6.55;;;10.40;99.90;;;;;;5028592;28;20048;-50
2023/06/06 01:15:52;;;;;;;16.17;7.43;;;10.40;99.90;;;;;;5030282;28;20049;-51
2023/06/06 01:18:21;;;;;;;14.60;6.93;;;10.40;99.90;;;;;;5026823;28;20498;-51
2023/06/06 01:20:49;;;;;;;14.30;7.28;;;10.30;99.90;;;;;;5029063;28;20038;-51
2023/06/06 01:23:15;;;;;;;14.23;7.07;;;10.30;99.90;;;;;;5027180;28;20072;-50
2023/06/06 01:25:44;;;;;;;11.50;7.15;;;10.30;99.90;;;;;;5028941;28;20040;-54
2023/06/06 01:28:13;;;;;;;14.90;7.15;;;10.40;99.90;;;;;;5029451;28;20063;-53
2023/06/06 01:30:41;;;;;;;13.32;6.95;;;10.30;99.90;;;;;;5032132;28;20063;-50
2023/06/06 01:33:36;;;;;;;12.55;6.45;;;10.30;99.90;;;;;;5024212;28;20216;-49
2023/06/06 01:36:16;;;;;;;12.80;6.70;;;10.30;99.90;;;;;;5032000;28;20091;-53
2023/06/06 01:38:48;;;;;;;12.63;6.70;;;10.30;99.90;;;;;;5032363;28;20088;-51
2023/06/06 01:41:16;;;;;;;12.07;7.03;;;10.30;99.90;;;;;;5021559;28;20049;-53
2023/06/06 01:43:49;;;;;;;10.70;7.03;;;10.30;99.90;;;;;;5033307;28;20051;-52
2023/06/06 01:46:16;;;;;;;11.50;7.18;;;10.30;99.90;;;;;;5032020;28;20041;-54
2023/06/06 01:48:43;;;;;;;14.98;7.55;;;10.20;99.90;;;;;;5032716;28;20094;-55
2023/06/06 01:51:09;;;;;;;13.73;7.38;;;10.20;99.90;;;;;;5030430;28;20048;-52
2023/06/06 01:53:35;;;;;;;16.10;7.78;;;10.20;99.90;;;;;;5032060;28;20056;-51
2023/06/06 01:56:01;;;;;;;11.57;7.25;;;10.20;99.90;;;;;;5032569;28;20045;-51
2023/06/06 01:58:26;;;;;;;14.07;7.88;;;10.20;99.90;;;;;;5033144;28;20038;-52
2023/06/06 02:00:52;;;;;;;15.27;7.63;;;10.20;99.90;;;;;;5034096;28;20851;-49
2023/06/06 02:03:18;;;;;;;13.02;7.50;;;10.20;99.90;;;;;;5033178;28;20501;-49
2023/06/06 02:05:43;;;;;;;17.40;8.13;;;10.20;99.90;;;;;;5029748;28;20137;-51
2023/06/06 02:08:10;;;;;;;12.60;7.55;;;10.20;99.90;;;;;;5030106;28;20051;-48
2023/06/06 02:10:36;;;;;;;13.20;7.53;;;10.20;99.90;;;;;;5030144;28;20053;-52
2023/06/06 02:13:02;;;;;;;12.15;7.70;;;10.20;99.90;;;;;;5033712;28;20059;-49
2023/06/06 02:15:29;;;;;;;16.30;8.20;;;10.20;99.90;;;;;;5045027;28;20045;-48
2023/06/06 02:17:56;;;;;;;15.88;8.30;;;10.20;99.90;;;;;;5029129;28;20040;-49
2023/06/06 02:20:22;;;;;;;18.02;8.00;;;10.20;99.90;;;;;;5031236;28;20124;-50
2023/06/06 02:22:47;;;;;;;13.88;7.50;;;10.20;99.90;;;;;;5036712;28;20084;-51
2023/06/06 02:25:13;;;;;;;16.33;8.13;;;10.20;99.90;;;;;;5030607;28;20970;-51
2023/06/06 02:27:43;;;;;;;17.83;8.13;;;10.20;99.90;;;;;;5033726;28;20045;-49
2023/06/06 02:30:10;;;;;;;16.20;8.63;;;10.20;99.90;;;;;;5035522;28;20063;-52
2023/06/06 02:32:35;;;;;;;14.27;8.63;;;10.20;99.90;;;;;;5032725;28;20054;-50
2023/06/06 02:35:03;;;;;;;15.02;7.97;;;10.20;99.90;;;;;;5041717;28;20088;-48
2023/06/06 02:37:30;;;;;;;15.45;8.13;;;10.20;99.90;;;;;;5033227;28;20056;-51
2023/06/06 02:39:56;;;;;;;17.83;7.95;;;10.20;99.90;;;;;;5033180;28;20049;-52
2023/06/06 02:42:21;;;;;;;12.25;7.47;;;10.20;99.90;;;;;;5025020;28;20105;-49
2023/06/06 02:44:47;;;;;;;15.15;7.65;;;10.20;99.90;;;;;;5023863;28;20041;-50
2023/06/06 02:47:13;;;;;;;12.57;7.68;;;10.20;99.90;;;;;;5032408;28;20048;-50
2023/06/06 02:49:39;;;;;;;14.57;7.78;;;10.20;99.90;;;;;;5036080;28;20082;-50
2023/06/06 02:52:06;;;;;;;15.10;8.15;;;10.20;99.90;;;;;;5037621;28;20049;-49
2023/06/06 02:54:33;;;;;;;14.85;8.18;;;10.20;99.90;;;;;;5032341;28;20040;-50
2023/06/06 02:56:58;;;;;;;16.05;8.45;;;10.20;99.90;;;;;;5034539;28;20097;-49
2023/06/06 02:59:24;;;;;;;13.90;8.25;;;10.20;99.90;;;;;;5037583;28;20487;-50
2023/06/06 03:01:50;;;;;;;12.02;7.30;;;10.20;99.90;;;;;;5036415;28;20036;-50
2023/06/06 03:04:16;;;;;;;13.80;8.70;;;10.20;99.90;;;;;;5034162;28;20498;-52
2023/06/06 03:06:42;;;;;;;15.73;9.20;;;10.20;99.90;;;;;;5032332;28;20069;-52
2023/06/06 03:09:09;;;;;;;20.88;9.38;;;10.10;99.90;;;;;;5033213;28;20079;-51
2023/06/06 03:11:35;;;;;;;11.70;8.27;;;10.20;99.90;;;;;;5036756;28;20980;-52
2023/06/06 03:14:01;;;;;;;12.38;8.20;;;10.10;99.90;;;;;;5035004;28;20663;-49
2023/06/06 03:16:28;;;;;;;14.05;9.02;;;10.10;99.90;;;;;;5031146;28;20059;-50
2023/06/06 03:18:54;;;;;;;14.93;8.82;;;10.20;99.90;;;;;;5031433;28;20140;-55
2023/06/06 03:21:20;;;;;;;14.40;8.73;;;10.20;99.90;;;;;;5029580;28;20128;-52
2023/06/06 03:23:46;;;;;;;14.25;8.70;;;10.20;99.90;;;;;;5030925;28;20049;-55
2023/06/06 03:26:12;;;;;;;15.93;8.45;;;10.10;99.90;;;;;;5032254;28;20045;-52
2023/06/06 03:28:39;;;;;;;18.55;8.07;;;10.20;99.90;;;;;;5034826;28;20405;-53
2023/06/06 03:31:07;;;;;;;15.10;8.88;;;10.20;99.90;;;;;;5027395;28;20053;-53
2023/06/06 03:33:35;;;;;;;15.43;8.63;;;10.10;99.90;;;;;;5031104;28;20049;-52
2023/06/06 03:36:02;;;;;;;14.95;8.15;;;10.20;99.90;;;;;;5030131;28;20041;-52
2023/06/06 03:38:28;;;;;;;18.25;8.90;;;10.20;99.90;;;;;;5033131;28;20053;-48
2023/06/06 03:40:54;;;;;;;23.98;8.85;;;10.20;99.90;;;;;;5031234;28;20044;-50
2023/06/06 03:43:20;;;;;;;18.58;9.15;;;10.20;99.90;;;;;;5013567;28;20043;-54
2023/06/06 03:45:46;;;;;;;13.52;8.50;;;10.20;99.90;;;;;;5032582;28;20563;-52
2023/06/06 03:48:12;;;;;;;16.15;8.70;;;10.20;99.90;;;;;;5032445;28;20045;-54
2023/06/06 03:50:39;;;;;;;14.10;8.55;;;10.20;99.90;;;;;;5020286;28;20964;-53
2023/06/06 03:53:04;;;;;;;16.20;8.25;;;10.20;99.90;;;;;;5033018;28;20128;-49
2023/06/06 03:55:33;;;;;;;14.30;7.78;;;10.20;99.90;;;;;;5030645;28;20504;-54
2023/06/06 03:57:59;;;;;;;13.48;7.93;;;10.20;99.90;;;;;;5033388;28;20045;-53
2023/06/06 04:00:25;;;;;;;13.13;8.48;;;10.30;99.90;;;;;;5033368;28;20086;-49
2023/06/06 04:02:51;;;;;;;13.48;7.95;;;10.30;99.90;;;;;;5029939;28;20478;-52
2023/06/06 04:05:17;;;;;;;15.70;7.85;;;10.30;99.90;;;;;;5032666;28;20131;-50
2023/06/06 04:07:43;;;;;;;14.20;8.00;;;10.30;99.90;;;;;;5030466;28;20257;-51
2023/06/06 04:10:09;;;;;;;17.00;8.73;;;10.30;99.90;;;;;;5031849;28;20053;-54
2023/06/06 04:12:36;;;;;;;18.88;8.68;;;10.40;99.90;;;;;;5033051;28;20112;-52
2023/06/06 04:15:02;;;;;;;14.32;8.15;;;10.40;99.90;;;;;;5030878;28;20051;-51
2023/06/06 04:17:28;;;;;;;12.68;7.32;;;10.40;99.90;;;;;;5031943;28;20107;-53
2023/06/06 04:19:55;;;;;;;13.57;8.18;;;10.40;99.90;;;;;;5031979;28;20052;-52
2023/06/06 04:22:24;;;;;;;17.15;8.52;;;10.40;99.90;;;;;;5030152;28;20045;-53
2023/06/06 04:24:50;;;;;;;20.98;8.85;;;10.50;99.90;;;;;;5028739;28;20037;-53
2023/06/06 04:27:18;;;;;;;15.82;8.63;;;10.50;99.90;;;;;;5027873;28;20115;-50
2023/06/06 04:29:44;;;;;;;14.10;8.23;;;10.50;99.90;;;;;;5031258;28;20045;-55
2023/06/06 04:32:10;;;;;;;19.15;8.88;;;10.60;99.90;;;;;;5030382;28;20493;-50
2023/06/06 04:34:41;;;;;;;19.88;8.30;;;10.60;99.90;;;;;;5032529;28;20040;-52
2023/06/06 04:37:07;;;;;;;21.40;9.55;;;10.60;99.90;;;;;;5031950;28;20064;-54
2023/06/06 04:39:33;;;;;;;17.60;8.35;;;10.70;99.90;;;;;;5032543;28;20033;-49
2023/06/06 04:42:07;;;;;;;19.50;7.95;;;10.70;99.90;;;;;;5027590;28;20397;-49
2023/06/06 04:44:42;;;;;;;15.35;7.90;;;10.80;99.90;;;;;;5031082;28;20397;-52
2023/06/06 04:47:12;;;;;;;15.35;7.57;;;10.80;99.90;;;;;;5031703;28;20047;-50
2023/06/06 04:49:39;;;;;;;18.83;8.10;;;10.90;99.90;;;;;;5029867;28;20456;-50
2023/06/06 04:52:06;;;;;;;17.08;8.00;;;10.90;99.90;;;;;;5030753;28;20053;-52
2023/06/06 04:54:33;;;;;;;17.10;8.07;;;11.00;99.90;;;;;;5008891;28;20045;-51
2023/06/06 04:57:00;;;;;;;17.02;7.93;;;11.00;99.90;;;;;;5038021;28;20041;-50
2023/06/06 04:59:27;;;;;;;20.40;8.65;;;11.10;99.90;;;;;;5038621;28;20040;-50
2023/06/06 05:01:55;;;;;;;19.73;8.50;;;11.10;99.90;;;;;;5036198;28;20124;-53
2023/06/06 05:04:22;;;;;;;16.23;8.30;;;11.20;99.90;;;;;;5031926;28;20111;-52
2023/06/06 05:06:48;;;;;;;18.30;8.55;;;11.20;99.90;;;;;;5033340;28;20484;-55
2023/06/06 05:09:14;;;;;;;14.10;8.07;;;11.30;99.90;;;;;;5036317;28;20036;-49
2023/06/06 05:11:45;;;;;;;19.85;8.05;;;11.30;99.90;;;;;;5034927;28;20049;-55
2023/06/06 05:14:11;;;;;;;20.52;8.55;;;11.30;99.90;;;;;;5031595;28;20130;-49
2023/06/06 05:16:37;;;;;;;19.40;8.38;;;11.40;99.90;;;;;;5030698;28;20432;-57
2023/06/06 05:19:02;;;;;;;15.57;8.45;;;11.40;99.90;;;;;;5034830;28;20143;-57
2023/06/06 05:21:28;;;;;;;22.45;8.43;;;11.50;99.90;;;;;;5032029;28;20172;-55
2023/06/06 05:23:54;;;;;;;23.88;9.15;;;11.50;99.90;;;;;;5033703;28;20981;-52
2023/06/06 05:26:20;;;;;;;22.33;8.63;;;11.60;99.90;;;;;;5035385;28;20037;-56
2023/06/06 05:28:46;;;;;;;14.02;8.60;;;11.60;99.90;;;;;;5036065;28;20106;-58
2023/06/06 05:31:16;;;;;;;21.08;8.57;;;11.70;99.90;;;;;;5036418;28;20501;-55
2023/06/06 05:33:42;;;;;;;16.10;8.05;;;11.70;99.90;;;;;;5032331;28;20045;-57
2023/06/06 05:36:08;;;;;;;15.98;8.25;;;11.80;99.90;;;;;;5032532;28;20056;-57
2023/06/06 05:38:34;;;;;;;16.20;8.10;;;11.80;99.90;;;;;;5034093;28;20054;-55
2023/06/06 05:40:59;;;;;;;20.30;8.70;;;11.90;99.90;;;;;;5035036;28;20436;-57
2023/06/06 05:43:25;;;;;;;17.67;8.25;;;11.90;99.90;;;;;;5036395;28;20485;-56
2023/06/06 05:45:51;;;;;;;16.02;8.15;;;12.00;99.90;;;;;;5033771;28;20090;-57
2023/06/06 05:48:17;;;;;;;16.33;7.85;;;12.00;99.90;;;;;;5022251;28;20168;-56
2023/06/06 05:50:43;;;;;;;16.73;7.93;;;12.10;99.90;;;;;;5034649;28;20091;-58
2023/06/06 05:53:09;;;;;;;14.90;5.63;;;12.20;99.90;;;;;;5032821;28;20061;-57
2023/06/06 05:55:35;;;;;;;17.30;6.32;;;12.20;99.90;;;;;;5025420;28;20147;-56
2023/06/06 05:58:03;;;;;;;10.23;5.93;;;12.30;99.90;;;;;;5014990;28;20048;-57
2023/06/06 06:00:31;;;;;;;11.52;6.63;;;12.40;99.90;;;;;;5027834;28;20042;-58
2023/06/06 06:02:58;;;;;;;14.90;6.68;;;12.40;99.90;;;;;;5032877;28;21017;-59
2023/06/06 06:05:28;;;;;;;12.57;6.95;;;12.50;99.90;;;;;;5028465;28;20437;-59
2023/06/06 06:07:55;;;;;;;16.73;6.53;;;12.50;99.90;;;;;;5031129;28;20548;-60
2023/06/06 06:10:21;;;;;;;15.05;5.75;;;12.60;99.90;;;;;;5029423;28;20489;-60
2023/06/06 06:12:47;;;;;;;13.82;5.60;;;12.70;99.90;;;;;;5036578;28;20040;-61
2023/06/06 06:15:13;;;;;;;10.55;4.95;;;12.70;99.90;;;;;;5036408;28;20048;-61
2023/06/06 06:17:38;;;;;;;14.38;5.15;;;12.80;99.90;;;;;;5036322;28;20040;-61
2023/06/06 06:20:08;;;;;;;14.10;5.57;;;12.80;99.90;;;;;;5034233;28;20136;-60
2023/06/06 06:22:35;;;;;;;7.78;4.60;;;12.80;99.90;;;;;;5035199;28;20127;-60
2023/06/06 06:25:05;;;;;;;9.55;4.40;;;12.90;99.90;;;;;;5032794;28;20041;-61
2023/06/06 06:27:31;;;;;;;10.90;4.60;;;12.90;99.90;;;;;;5033776;28;22357;-61
2023/06/06 06:29:57;;;;;;;13.75;5.22;;;13.00;99.90;;;;;;5034553;28;20052;-61
2023/06/06 06:32:23;;;;;;;10.02;4.38;;;13.00;99.90;;;;;;5035863;28;20056;-61
2023/06/06 06:34:49;;;;;;;17.95;5.15;;;13.10;99.90;;;;;;5033522;28;20516;-61
2023/06/06 06:37:18;;;;;;;8.55;5.35;;;13.20;99.90;;;;;;5019849;28;20086;-61
2023/06/06 06:39:45;;;;;;;8.93;4.38;;;13.30;99.90;;;;;;5034951;28;20046;-60
2023/06/06 06:42:11;;;;;;;11.85;4.75;;;13.30;99.90;;;;;;5034186;28;20113;-61
2023/06/06 06:44:37;;;;;;;16.38;5.13;;;13.30;99.90;;;;;;5036300;28;20036;-61
2023/06/06 06:47:03;;;;;;;11.77;5.25;;;13.40;99.90;;;;;;5034807;28;20298;-61
2023/06/06 06:49:29;;;;;;;13.48;4.82;;;13.50;99.90;;;;;;5035584;28;20056;-61
2023/06/06 06:51:56;;;;;;;9.30;4.85;;;13.60;99.90;;;;;;5036782;28;20068;-61
2023/06/06 06:54:24;;;;;;;9.93;4.82;;;13.60;99.90;;;;;;5034180;28;20038;-60
2023/06/06 06:56:51;;;;;;;15.20;5.47;;;13.70;99.90;;;;;;5032440;28;20049;-61
2023/06/06 06:59:17;;;;;;;9.77;4.50;;;13.80;99.90;;;;;;5021431;28;20049;-61
2023/06/06 07:01:49;;;;;;;9.82;4.53;;;13.90;99.90;;;;;;5033730;28;20516;-61
2023/06/06 07:04:17;;;;;;;10.70;4.07;;;13.90;99.90;;;;;;5026418;28;20079;-61
2023/06/06 07:06:44;;;;;;;12.43;4.65;;;14.00;99.90;;;;;;5024403;28;20119;-61
2023/06/06 07:09:11;;;;;;;16.00;4.38;;;14.00;99.90;;;;;;5019371;28;20937;-61
2023/06/06 07:11:37;;;;;;;8.48;4.65;;;14.10;99.90;;;;;;5038945;28;20127;-61
2023/06/06 07:14:03;;;;;;;8.10;4.80;;;14.10;99.90;;;;;;5033234;28;20569;-61
2023/06/06 07:16:31;;;;;;;12.77;4.90;;;14.20;99.90;;;;;;5035247;28;20494;-61
2023/06/06 07:18:56;;;;;;;11.05;5.13;;;14.30;99.90;;;;;;5031028;28;21845;-61
2023/06/06 07:21:22;;;;;;;11.98;5.25;;;14.40;99.90;;;;;;5027141;28;20049;-60
2023/06/06 07:23:52;;;;;;;12.40;5.22;;;14.50;99.90;;;;;;5016256;28;20041;-61
2023/06/06 07:26:19;;;;;;;9.23;4.85;;;14.60;99.90;;;;;;5033205;28;20505;-62
2023/06/06 07:28:46;;;;;;;10.68;5.45;;;14.70;99.90;;;;;;5036947;28;20064;-62
2023/06/06 07:31:14;;;;;;;10.30;5.30;;;14.80;99.90;;;;;;5035399;28;21174;-62
2023/06/06 07:33:40;;;;;;;14.38;5.85;;;14.80;99.90;;;;;;5035974;28;20057;-61
2023/06/06 07:36:07;;;;;;;13.65;5.38;;;14.70;99.90;;;;;;5032961;28;20029;-61
2023/06/06 07:38:33;;;;;;;17.85;5.95;;;14.70;99.90;;;;;;5035253;28;20388;-62
2023/06/06 07:40:59;;;;;;;17.25;5.82;;;14.70;99.90;;;;;;5035915;28;20154;-61
2023/06/06 07:43:28;;;;;;;12.13;5.20;;;14.70;99.90;;;;;;5039493;28;21406;-62
2023/06/06 07:45:54;;;;;;;11.85;5.07;;;14.80;99.90;;;;;;5037956;28;20038;-62
2023/06/06 07:48:20;;;;;;;7.43;4.55;;;14.90;99.90;;;;;;5036590;28;20086;-62
2023/06/06 07:50:45;;;;;;;12.00;5.07;;;15.00;99.90;;;;;;5039011;28;20155;-62
2023/06/06 07:53:11;;;;;;;10.80;5.05;;;15.10;99.90;;;;;;5034542;28;20551;-61
2023/06/06 07:55:37;;;;;;;12.05;5.30;;;15.20;99.90;;;;;;5034284;28;22452;-61
2023/06/06 07:58:10;;;;;;;9.65;4.97;;;15.30;99.90;;;;;;5016466;28;20077;-61
2023/06/06 08:00:36;;;;;;;10.05;5.22;;;15.30;99.90;;;;;;5034667;28;20044;-62
2023/06/06 08:03:03;;;;;;;11.68;5.38;;;15.40;99.90;;;;;;5037541;28;20136;-61
2023/06/06 08:05:28;;;;;;;7.82;4.88;;;15.40;99.90;;;;;;5033691;28;20037;-62
2023/06/06 08:07:54;;;;;;;7.40;4.13;;;15.50;99.90;;;;;;5039708;28;20052;-62
2023/06/06 08:10:20;;;;;;;10.50;5.38;;;15.60;99.90;;;;;;5036071;28;20043;-62
2023/06/06 08:12:46;;;;;;;10.95;5.03;;;15.80;99.90;;;;;;5033153;28;20469;-62
2023/06/06 08:15:13;;;;;;;10.70;4.38;;;15.90;99.90;;;;;;5034558;28;20128;-61
2023/06/06 08:17:39;;;;;;;11.45;5.20;;;16.00;99.90;;;;;;5033502;28;20041;-62
2023/06/06 08:20:08;;;;;;;12.13;4.95;;;16.10;99.90;;;;;;5034115;28;21209;-62
2023/06/06 08:22:37;;;;;;;11.93;4.80;;;16.10;99.90;;;;;;5032951;28;20049;-62
2023/06/06 08:25:07;;;;;;;12.65;5.05;;;16.10;99.90;;;;;;5035608;28;20728;-62
2023/06/06 08:27:34;;;;;;;8.52;4.93;;;16.10;99.90;;;;;;5034295;28;20079;-62
2023/06/06 08:30:00;;;;;;;15.68;5.60;;;16.20;99.90;;;;;;5037741;28;20081;-62
2023/06/06 08:32:27;;;;;;;10.88;4.90;;;16.30;99.90;;;;;;5030561;28;20486;-62
2023/06/06 08:34:54;;;;;;;8.15;5.03;;;16.40;99.90;;;;;;5035022;28;20047;-62
2023/06/06 08:37:19;;;;;;;13.27;4.93;;;16.40;99.90;;;;;;5034959;28;20045;-62
2023/06/06 08:39:47;;;;;;;9.38;4.63;;;16.50;99.90;;;;;;5024167;28;20037;-62
2023/06/06 08:42:17;;;;;;;5.80;4.00;;;16.50;99.90;;;;;;5029349;28;20045;-62
2023/06/06 08:44:43;;;;;;;8.93;4.65;;;16.50;99.90;;;;;;5035045;28;20056;-62
2023/06/06 08:47:10;;;;;;;10.93;4.97;;;16.60;99.90;;;;;;5027215;28;20129;-62
2023/06/06 08:49:39;;;;;;;11.10;5.05;;;16.80;99.90;;;;;;5031315;28;20052;-62
2023/06/06 08:52:06;;;;;;;10.65;4.85;;;16.90;99.90;;;;;;5033451;28;20375;-63
2023/06/06 08:54:32;;;;;;;10.68;4.63;;;16.90;99.90;;;;;;5003058;28;20049;-60
2023/06/06 08:57:07;;;;;;;10.25;4.80;;;17.00;99.90;;;;;;5021595;28;20057;-62
2023/06/06 08:59:41;;;;;;;13.02;4.97;;;17.10;99.90;;;;;;5033849;28;20042;-62
2023/06/06 09:02:07;;;;;;;10.48;5.05;;;17.10;99.90;;;;;;5004632;28;20526;-62
2023/06/06 09:04:34;;;;;;;10.38;4.60;;;17.10;99.90;;;;;;5027738;28;20045;-62
2023/06/06 09:07:08;;;;;;;10.00;5.38;;;17.20;99.90;;;;;;5031094;28;20041;-62
2023/06/06 09:09:37;;;;;;;12.35;5.80;;;17.20;99.90;;;;;;5031882;28;20072;-61
2023/06/06 09:12:03;;;;;;;10.65;5.30;;;17.30;99.90;;;;;;5034213;28;20132;-61
2023/06/06 09:14:29;;;;;;;11.40;5.10;;;17.40;99.90;;;;;;5028603;28;20217;-62
2023/06/06 09:16:55;;;;;;;13.63;5.60;;;17.50;99.90;;;;;;5031295;28;20041;-62
2023/06/06 09:19:27;;;;;;;12.40;5.78;;;17.60;99.90;;;;;;5033454;28;20188;-62
2023/06/06 09:21:53;;;;;;;11.73;5.18;;;17.60;99.90;;;;;;5033048;28;20049;-62
2023/06/06 09:24:19;;;;;;;11.55;5.10;;;17.60;99.90;;;;;;5032018;28;20037;-62
2023/06/06 09:26:45;;;;;;;13.52;5.57;;;17.70;99.90;;;;;;5014895;28;20039;-62
2023/06/06 09:29:13;;;;;;;16.02;5.53;;;17.80;99.90;;;;;;5036188;28;20409;-62
2023/06/06 09:31:41;;;;;;;11.32;5.63;;;17.90;99.90;;;;;;5036359;28;20046;-62
2023/06/06 09:34:08;;;;;;;12.65;5.25;;;18.00;99.90;;;;;;5035937;28;20053;-62
2023/06/06 09:36:33;;;;;;;10.50;5.80;;;18.10;99.90;;;;;;5037263;28;20060;-62
2023/06/06 09:39:13;;;;;;;11.10;6.00;;;18.20;99.90;;;;;;5036444;28;20048;-62
2023/06/06 09:41:47;;;;;;;12.60;6.40;;;18.20;99.90;;;;;;5037560;28;20038;-62
2023/06/06 09:44:25;;;;;;;11.52;5.60;;;18.20;99.90;;;;;;5038110;28;20128;-62
2023/06/06 09:47:01;;;;;;;8.63;5.10;;;18.30;99.90;;;;;;5041717;28;20044;-62
2023/06/06 09:49:34;;;;;;;10.63;5.93;;;18.30;99.90;;;;;;5046036;28;20440;-62
2023/06/06 09:52:00;;;;;;;11.23;5.55;;;18.50;99.90;;;;;;5040696;28;20057;-63
2023/06/06 09:54:26;;;;;;;9.48;5.55;;;18.50;99.90;;;;;;5040824;28;20117;-62
2023/06/06 09:56:54;;;;;;;11.25;5.72;;;18.50;99.90;;;;;;5042278;28;20037;-62
2023/06/06 09:59:24;;;;;;;11.60;5.78;;;18.60;99.90;;;;;;5040110;28;20046;-62
2023/06/06 10:01:57;;;;;;;10.63;5.80;;;18.70;99.90;;;;;;5039649;28;20103;-63
2023/06/06 10:04:27;;;;;;;16.20;5.65;;;18.80;99.90;;;;;;5037415;28;20056;-62
2023/06/06 10:06:54;;;;;;;11.95;5.55;;;19.00;99.90;;;;;;5038736;28;20529;-62
2023/06/06 10:09:21;;;;;;;11.45;5.00;;;19.00;99.90;;;;;;5039975;28;20048;-62
2023/06/06 10:11:47;;;;;;;10.48;5.10;;;19.10;99.90;;;;;;5039735;28;20106;-62
2023/06/06 10:14:15;;;;;;;13.13;5.32;;;19.20;99.90;;;;;;5039396;28;20482;-63
2023/06/06 10:16:41;;;;;;;10.85;5.05;;;19.20;99.80;;;;;;5040630;28;20045;-63
2023/06/06 10:19:08;;;;;;;13.65;5.40;;;19.20;99.70;;;;;;5039637;28;20099;-62
2023/06/06 10:21:35;;;;;;;11.10;5.47;;;19.20;99.40;;;;;;5040727;28;20036;-62
2023/06/06 10:24:01;;;;;;;10.45;5.47;;;19.20;99.50;;;;;;5042240;28;20503;-62
2023/06/06 10:26:32;;;;;;;12.18;6.00;;;19.10;99.50;;;;;;5039521;28;20073;-63
2023/06/06 10:29:30;;;;;;;14.35;5.95;;;19.20;99.80;;;;;;5040476;28;20049;-62
2023/06/06 10:31:59;;;;;;;11.02;5.65;;;19.30;99.90;;;;;;5039590;28;20447;-63
2023/06/06 10:34:31;;;;;;;13.10;5.53;;;19.40;99.70;;;;;;5040342;28;20081;-63
2023/06/06 10:37:17;;;;;;;13.17;5.50;;;19.50;99.60;;;;;;5045831;28;20556;-63
2023/06/06 10:39:47;;;;;;;11.43;5.20;;;19.70;99.50;;;;;;5038247;28;20299;-63
2023/06/06 10:42:14;;;;;;;11.02;5.30;;;19.80;99.40;;;;;;5040841;28;20040;-63
2023/06/06 10:44:45;;;;;;;12.48;5.78;;;19.90;99.00;;;;;;5039162;28;20080;-63
2023/06/06 10:47:28;;;;;;;10.40;5.40;;;20.00;98.70;;;;;;5039026;28;20441;-64
2023/06/06 10:50:10;;;;;;;14.05;5.68;;;20.10;98.70;;;;;;5041053;28;21100;-63
2023/06/06 10:52:59;;;;;;;15.65;5.40;;;20.10;98.60;;;;;;5040598;28;20693;-63
2023/06/06 10:55:25;;;;;;;14.20;5.60;;;20.10;98.40;;;;;;5038548;28;20037;-63
2023/06/06 10:58:06;;;;;;;11.90;5.38;;;20.10;98.10;;;;;;5041800;28;20179;-61
2023/06/06 11:00:33;;;;;;;14.73;5.38;;;20.10;98.10;;;;;;5040825;28;20048;-63
2023/06/06 11:03:10;;;;;;;10.82;4.80;;;20.10;98.00;;;;;;5041466;28;20478;-63
2023/06/06 11:06:01;;;;;;;10.57;5.25;;;20.10;98.10;;;;;;5037946;28;20041;-63
2023/06/06 11:08:39;;;;;;;11.10;5.18;;;20.10;97.50;;;;;;5038257;28;20120;-63
2023/06/06 11:11:33;;;;;;;12.32;5.00;;;20.10;97.70;;;;;;5038469;28;20103;-63
2023/06/06 11:14:01;;;;;;;11.00;4.85;;;20.20;97.60;;;;;;5038795;28;20547;-63
2023/06/06 11:16:50;;;;;;;10.10;5.00;;;20.20;97.30;;;;;;5038982;28;20041;-62
2023/06/06 11:19:29;;;;;;;12.50;5.13;;;20.20;97.30;;;;;;5036124;28;20482;-63
2023/06/06 11:21:59;;;;;;;12.38;5.13;;;20.20;97.30;;;;;;5039908;28;20159;-63
2023/06/06 11:24:32;;;;;;;9.73;4.82;;;20.30;97.30;;;;;;5037797;28;20048;-63
2023/06/06 11:26:58;;;;;;;11.57;5.00;;;20.40;96.90;;;;;;5038027;28;20075;-63
2023/06/06 11:29:26;;;;;;;13.75;5.50;;;20.50;96.80;;;;;;5036396;28;20060;-63
2023/06/06 11:31:52;;;;;;;10.18;5.20;;;20.60;96.90;;;;;;5038793;28;20064;-63
2023/06/06 11:34:18;;;;;;;12.57;5.63;;;20.80;97.00;;;;;;5037781;28;20486;-63
2023/06/06 11:36:45;;;;;;;12.20;5.55;;;20.80;96.30;;;;;;5038544;28;20072;-63
2023/06/06 11:39:13;;;;;;;12.70;5.57;;;20.90;96.10;;;;;;5038255;28;20057;-63
2023/06/06 11:41:47;;;;;;;12.45;5.35;;;21.00;95.50;;;;;;5038905;28;20052;-63
2023/06/06 11:44:16;;;;;;;11.18;5.72;;;21.00;94.70;;;;;;5038477;28;20048;-63
2023/06/06 11:46:48;;;;;;;16.30;5.43;;;21.00;94.80;;;;;;5037657;28;20112;-63
2023/06/06 11:49:15;;;;;;;12.05;5.25;;;21.00;94.60;;;;;;5038021;28;20045;-63
2023/06/06 11:51:42;;;;;;;17.33;5.95;;;20.90;94.60;;;;;;5039848;28;20409;-62
2023/06/06 11:54:17;;;;;;;15.93;6.53;;;21.00;95.10;;;;;;5036457;28;20046;-63
2023/06/06 11:56:43;;;;;;;15.45;5.82;;;21.00;94.80;;;;;;5037676;28;20090;-63
2023/06/06 11:59:13;;;;;;;10.48;5.60;;;21.00;94.40;;;;;;5036337;28;20513;-63
2023/06/06 12:01:56;;;;;;;14.23;5.70;;;20.90;93.90;;;;;;5036934;28;20109;-63
2023/06/06 12:04:23;;;;;;;13.50;5.15;;;20.90;94.80;;;;;;5036231;28;20537;-63
2023/06/06 12:06:55;;;;;;;11.35;5.00;;;21.10;94.50;;;;;;5023690;28;20050;-63
2023/06/06 12:09:23;;;;;;;10.80;5.20;;;21.20;94.20;;;;;;5038958;28;20045;-63
2023/06/06 12:12:10;;;;;;;13.70;5.43;;;21.30;93.90;;;;;;5037463;28;20418;-63
2023/06/06 12:14:36;;;;;;;9.27;4.95;;;21.30;92.80;;;;;;5037042;28;20049;-63
2023/06/06 12:17:06;;;;;;;18.52;5.45;;;21.20;92.00;;;;;;5040937;28;20122;-63
2023/06/06 12:19:33;;;;;;;8.02;4.07;;;21.20;92.20;;;;;;5032950;28;20124;-60
2023/06/06 12:21:59;;;;;;;14.48;5.00;;;21.20;91.70;;;;;;5036463;28;20509;-60
2023/06/06 12:24:27;;;;;;;13.40;4.72;;;21.20;92.00;;;;;;5036663;28;20060;-60
2023/06/06 12:26:56;;;;;;;10.63;3.97;;;21.20;91.80;;;;;;5037054;28;20041;-60
2023/06/06 12:29:26;;;;;;;9.07;4.13;;;21.30;91.60;;;;;;5035925;28;20061;-60
2023/06/06 12:32:15;;;;;;;11.15;4.40;;;21.30;91.40;;;;;;5037329;28;20115;-60
2023/06/06 12:34:49;;;;;;;12.25;4.07;;;21.40;91.60;;;;;;5038134;28;20084;-61
2023/06/06 12:37:16;;;;;;;19.35;5.43;;;21.50;92.20;;;;;;5037366;28;20148;-59
2023/06/06 12:39:43;;;;;;;10.25;4.13;;;21.60;91.60;;;;;;5038946;28;20406;-60
2023/06/06 12:42:19;;;;;;;14.55;4.00;;;21.70;91.30;;;;;;5038594;28;20469;-61
2023/06/06 12:44:46;;;;;;;11.98;3.78;;;21.70;90.90;;;;;;5036103;28;20034;-60